Terminal Aerodrome Forecast
Issued by NWS Quad Cities IA IL

Home | Current Version | Previous Version | Text Only | Print | Product List | Glossary On
Versions: 1 2 3 4 5 6 7 8 9 10 11 12 13 14 15 16 17 18
000
FTUS43 KDVN 151000 AAA
TAFMLI
TAF AMD
KMLI 151016Z 1510/1606 VRB03KT P6SM VCSH BKN035
      TEMPO 1510/1512 2SM -TSRA BKN025CB
     FM151200 12003KT 4SM -SHRA SCT025 OVC035
     FM151500 23006KT 4SM -RA BR OVC025
     FM151800 30008KT P6SM OVC025
      TEMPO 1518/1520 -SHRA
     FM152100 33011KT P6SM BKN050
     FM160100 34003KT P6SM SKC=

USA.gov is the U.S. government's official web portal to all federal, state and local government web resources and services.